Nearby METAR Reports

 

KSJC - San Jose, California, USA
Distance from station: NE 14km
Updated: 14/10/2019 11:53
Clear
Clear
 Wind from SE
Wind: SE 7 km/h
Temperature: 9°C
Wind Chill: 8°C
Dew Point: 4°C
Humidity: 71%
Barometer: 1012.9 hPa
Clouds: Clear
Visibility: 16 km
2019/10/14 09:53 KSJC 140953Z AUTO 14004KT 10SM CLR 09/04 A2991 RMK AO2 SLP129 T00890044
KNUQ - Moffett Nas/Mtn, California, USA
Distance from station: N 14km
Updated: 14/10/2019 11:56

 
Barometer: 1013.2 hPa
2019/10/14 09:56 KNUQ 140956Z A2992 RMK AO2 SLP136 PWINO $
 
KPAO - Palo Alto, California, USA
Distance from station: NNW 23km
Updated: 14/10/2019 05:47
NOT Current
Clear
Clear
 Wind from W
Wind: W 7 km/h
Temperature: 13°C
Dew Point: 7°C
Humidity: 67%
Barometer: 1011.9 hPa
Clouds: Clear
Visibility: 16 km
2019/10/14 03:47 KPAO 140347Z 28004KT 10SM SKC 13/07 A2988 RMK LAST
KRHV - San Jose/Reid, California, USA
Distance from station: ENE 19km
Updated: 14/10/2019 04:47
NOT Current
Clear
Clear
 Wind from W
Wind: W 11 km/h
Temperature: 17°C
Dew Point: 5°C
Humidity: 45%
Barometer: 1011.2 hPa
Clouds: Clear
Visibility: 16 km
2019/10/14 02:47 KRHV 140247Z 27006KT 10SM SKC 17/05 A2986
 
KOAK - Oakland, California, USA
Distance from station: NNW 50km
Updated: 14/10/2019 11:53
Partly cloudy
Partly cloudy
 Wind from ENE
Wind: ENE 6 km/h
Temperature: 9°C
Dew Point: 7°C
Humidity: 87%
Barometer: 1013.2 hPa
Clouds: Partly cloudy
Visibility: 16 km
Cloud details: Partly cloudy 366 m
2019/10/14 09:53 KOAK 140953Z 07003KT 10SM SCT012 09/07 A2992 RMK AO2 SLP131 T00890072 $
KSQL - San Carlos Airpo, California, USA
Distance from station: NW 34km
Updated: 14/10/2019 05:51
NOT Current
Clear
Clear
 Wind from W
Wind: W 9 km/h
Temperature: 15°C
Dew Point: 1°C
Humidity: 39%
Barometer: 1011.9 hPa
Clouds: Clear
Visibility: 16 km
2019/10/14 03:51 KSQL 140351Z 26005KT 10SM SKC 15/01 A2988 RMK LAST
 
KSFO - San Francisco, California, USA
Distance from station: NW 49km
Updated: 14/10/2019 11:56
Few Clouds
Few Clouds
 Wind from calm
Wind: Calm
Temperature: 12°C
Dew Point: 7°C
Humidity: 72%
Barometer: 1012.9 hPa
Clouds: Few Clouds
Visibility: 16 km
Cloud details: Few Clouds 274 m
2019/10/14 09:56 KSFO 140956Z 00000KT 10SM FEW009 12/07 A2991 RMK AO2 SLP128 T01220067
KE16 - San Martin, California, USA
Distance from station: ESE 43km
Updated: 14/10/2019 12:35
Overcast
Overcast
 Wind from calm
Wind: Calm
Temperature: 6°C
Dew Point: 3°C
Humidity: 81%
Barometer: 1013.9 hPa
Clouds: Overcast
Visibility: 16 km
Cloud details: Overcast 1372 m
2019/10/14 10:35 KE16 141035Z AUTO 00000KT 10SM OVC045 06/03 A2994 RMK AO2
 
KWVI - Watsonville, California, USA
Distance from station: SSE 44km
Updated: 14/10/2019 11:53
Overcast
Overcast
 Wind from calm
Wind: Calm
Temperature: 11°C
Dew Point: 8°C
Humidity: 82%
Barometer: 1013.5 hPa
Clouds: Overcast
Visibility: 16 km
Cloud details: Overcast 183 m
2019/10/14 09:53 KWVI 140953Z AUTO 00000KT 10SM OVC006 11/08 A2993 RMK AO2 SLP136 T01060083
KHAF - Half Moon Bay, California, USA
Distance from station: WNW 50km
Updated: 14/10/2019 12:35
Overcast
Overcast
 Wind from ENE
Wind: ENE 11 km/h
Temperature: 10°C
Wind Chill: 8°C
Dew Point: 8°C
Humidity: 88%
Barometer: 1012.9 hPa
Clouds: Overcast
Visibility: 14 km
Cloud details: Overcast 305 m
2019/10/14 10:35 KHAF 141035Z AUTO 06006KT 9SM OVC010 10/08 A2991 RMK AO2
 
KHWD - Hayward, California, USA
Distance from station: N 44km
Updated: 14/10/2019 11:54
Clear
Clear
 Wind from NE
Wind: NE 7 km/h
Temperature: 9°C
Wind Chill: 8°C
Dew Point: 4°C
Humidity: 71%
Barometer: 1012.9 hPa
Clouds: Clear
Visibility: 16 km
2019/10/14 09:54 KHWD 140954Z AUTO 05004KT 10SM CLR 09/04 A2991 RMK AO2 SLP138 T00940044
KLVK - Livermore, California, USA
Distance from station: NNE 51km
Updated: 14/10/2019 11:53
Clear
Clear
 Wind from calm
Wind: Calm
Temperature: 8°C
Dew Point: -1°C
Humidity: 53%
Barometer: 1012.5 hPa
Clouds: Clear
Visibility: 16 km
2019/10/14 09:53 KLVK 140953Z AUTO 00000KT 10SM CLR 08/M01 A2990 RMK AO2 SLP123 T00831006